createdAt,value
2023-05-16T00:00:01.245Z,16.3
2023-05-16T00:10:01.265Z,16.4
2023-05-16T00:20:01.209Z,16.1
2023-05-16T00:50:01.163Z,15.7
2023-05-16T01:00:01.194Z,15.4
2023-05-16T01:10:01.168Z,15.4
2023-05-16T01:20:01.196Z,14.5
2023-05-16T01:30:01.141Z,14.4
2023-05-16T01:40:01.148Z,14.2
2023-05-16T01:50:01.210Z,14.3
2023-05-16T02:00:01.170Z,14.1
2023-05-16T02:10:01.140Z,13.7
2023-05-16T02:20:01.139Z,13.5
2023-05-16T02:30:01.220Z,13.1
2023-05-16T02:40:01.128Z,13.4
2023-05-16T02:50:01.259Z,13.5
2023-05-16T03:00:01.139Z,13.3
2023-05-16T03:10:01.146Z,13.3
2023-05-16T03:20:01.151Z,13.4
2023-05-16T03:30:01.159Z,13.2
2023-05-16T03:40:01.146Z,12.7
2023-05-16T03:50:01.167Z,12.9
2023-05-16T04:00:01.144Z,12.6
2023-05-16T04:10:01.193Z,13.1
2023-05-16T04:20:01.336Z,12.7
2023-05-16T04:30:01.194Z,12.6
2023-05-16T04:40:01.124Z,12.7
2023-05-16T04:50:01.234Z,12.3
2023-05-16T05:00:01.124Z,12.4
2023-05-16T05:10:01.185Z,12.3
2023-05-16T05:20:02.796Z,12.0
2023-05-16T05:30:01.144Z,12.2
2023-05-16T05:40:01.142Z,12.3
2023-05-16T05:50:01.217Z,12.6
2023-05-16T06:00:01.198Z,12.6
2023-05-16T06:10:02.496Z,12.6
2023-05-16T06:20:01.215Z,12.6
2023-05-16T06:30:01.207Z,13.0
2023-05-16T06:40:01.169Z,12.8
2023-05-16T06:50:01.218Z,12.8
2023-05-16T07:00:01.184Z,13.1
2023-05-16T07:10:01.183Z,12.8
2023-05-16T07:20:03.649Z,12.9
2023-05-16T07:30:01.161Z,13.1
2023-05-16T07:40:01.210Z,13.5
2023-05-16T07:50:01.278Z,13.4
2023-05-16T08:00:01.186Z,13.1
2023-05-16T08:10:01.283Z,12.9
2023-05-16T08:20:01.214Z,13.2
2023-05-16T08:30:01.364Z,13.1
2023-05-16T08:40:01.161Z,13.0
2023-05-16T08:50:01.198Z,13.1
2023-05-16T09:00:01.172Z,13.3
2023-05-16T09:10:01.244Z,13.7
2023-05-16T09:20:01.226Z,14.0
2023-05-16T09:30:01.265Z,13.5
2023-05-16T09:40:01.108Z,13.9
2023-05-16T09:50:01.186Z,13.9
2023-05-16T10:00:01.185Z,14.0
2023-05-16T10:20:01.150Z,13.6
2023-05-16T10:30:01.170Z,13.6
2023-05-16T10:40:01.172Z,14.6
2023-05-16T10:50:01.212Z,13.9
2023-05-16T11:00:01.116Z,13.4
2023-05-16T11:10:01.184Z,13.6
2023-05-16T11:20:01.212Z,14.8
2023-05-16T11:30:03.444Z,14.6
2023-05-16T11:40:01.286Z,14.2
2023-05-16T11:50:01.215Z,14.5
2023-05-16T12:00:01.164Z,16.2
2023-05-16T12:20:01.200Z,16.1
2023-05-16T12:30:01.203Z,16.0
2023-05-16T12:40:00.537Z,16.0
2023-05-16T12:50:01.238Z,16.1
2023-05-16T13:00:01.179Z,18.7
2023-05-16T13:20:01.203Z,17.8
2023-05-16T13:30:01.268Z,17.8
2023-05-16T13:40:01.129Z,20.0
2023-05-16T13:50:01.272Z,17.6
2023-05-16T14:00:18.022Z,17.3
2023-05-16T14:20:01.430Z,18.0
2023-05-16T14:30:01.295Z,17.9
2023-05-16T14:40:01.107Z,18.0
2023-05-16T14:50:01.362Z,19.6
2023-05-16T15:00:01.216Z,18.4
2023-05-16T15:10:01.303Z,18.6
2023-05-16T15:20:01.233Z,20.0
2023-05-16T15:30:01.270Z,21.0
2023-05-16T15:40:01.272Z,20.6
2023-05-16T15:50:01.367Z,21.6
2023-05-16T16:00:01.177Z,19.8
2023-05-16T16:10:00.754Z,20.2
2023-05-16T16:20:01.214Z,19.1
2023-05-16T16:30:01.291Z,19.6
2023-05-16T16:40:01.306Z,21.0
2023-05-16T17:00:01.179Z,19.3
2023-05-16T17:10:01.259Z,18.2
2023-05-16T17:20:01.173Z,18.0
2023-05-16T17:30:01.248Z,17.4
2023-05-16T17:40:01.229Z,17.2
2023-05-16T17:50:01.588Z,16.5
2023-05-16T18:00:01.142Z,16.5
2023-05-16T18:10:01.352Z,16.5
2023-05-16T18:20:01.288Z,16.1
2023-05-16T18:30:01.214Z,15.8
2023-05-16T18:40:01.437Z,16.0
2023-05-16T19:00:01.250Z,16.0
2023-05-16T19:10:03.666Z,16.0
2023-05-16T19:20:01.349Z,16.0
2023-05-16T19:40:01.145Z,16.0
2023-05-16T20:00:01.223Z,16.0
2023-05-16T20:20:01.268Z,16.0
2023-05-16T20:30:01.365Z,16.0
2023-05-16T20:40:01.261Z,16.0
2023-05-16T20:50:01.592Z,16.0
2023-05-16T21:00:01.427Z,16.0
2023-05-16T21:20:01.364Z,16.0
2023-05-16T21:30:01.253Z,16.0
2023-05-16T21:40:01.173Z,16.0
2023-05-16T21:50:01.272Z,16.0
2023-05-16T22:00:01.564Z,16.0
2023-05-16T22:10:01.661Z,16.0
2023-05-16T22:20:01.241Z,16.0
2023-05-16T22:40:01.102Z,16.0
2023-05-16T23:00:01.223Z,16.0
2023-05-16T23:20:01.222Z,16.0
2023-05-16T23:30:01.271Z,16.0
2023-05-16T23:40:01.187Z,16.0
2023-05-16T23:50:01.311Z,16.0
